createdAt,value
2022-10-05T00:00:56.475Z,101807.78
2022-10-05T00:03:41.476Z,101807.66
2022-10-05T00:06:13.497Z,101804.28
2022-10-05T00:08:42.167Z,101813.13
2022-10-05T00:11:13.727Z,101815.69
2022-10-05T00:13:42.533Z,101813.13
2022-10-05T00:16:21.701Z,101816.94
2022-10-05T00:18:53.326Z,101822.28
2022-10-05T00:21:23.757Z,101825.06
2022-10-05T00:23:53.016Z,101827.63
2022-10-05T00:26:26.607Z,101830.31
2022-10-05T00:28:55.617Z,101821.41
2022-10-05T00:31:26.914Z,101825.91
2022-10-05T00:33:56.008Z,101825.91
2022-10-05T00:36:26.480Z,101824.25
2022-10-05T00:38:55.367Z,101817.16
2022-10-05T00:41:48.192Z,101823.47
2022-10-05T00:44:19.969Z,101821.81
2022-10-05T00:46:56.167Z,101820.81
2022-10-05T00:49:50.896Z,101816.31
2022-10-05T00:52:47.087Z,101820.81
2022-10-05T00:55:33.916Z,101818.13
2022-10-05T00:58:31.867Z,101816.44
2022-10-05T01:01:10.951Z,101815.59
2022-10-05T01:03:52.176Z,101817.41
2022-10-05T01:06:48.420Z,101818.28
2022-10-05T01:09:37.909Z,101808.66
2022-10-05T01:12:34.326Z,101813.16
2022-10-05T01:15:21.399Z,101818.41
2022-10-05T01:18:20.397Z,101819.38
2022-10-05T01:20:58.747Z,101818.41
2022-10-05T01:23:50.355Z,101815.72
2022-10-05T01:26:40.679Z,101813.88
2022-10-05T01:29:45.718Z,101813.78
2022-10-05T01:32:21.288Z,101809.38
2022-10-05T01:35:10.856Z,101815.59
2022-10-05T01:37:55.991Z,101817.41
2022-10-05T01:40:35.469Z,101815.72
2022-10-05T01:43:05.092Z,101814.72
2022-10-05T01:45:50.290Z,101814.88
2022-10-05T01:48:32.723Z,101814.88
2022-10-05T01:51:15.889Z,101810.38
2022-10-05T01:54:01.567Z,101814.00
2022-10-05T01:56:56.210Z,101808.66
2022-10-05T01:59:32.518Z,101808.66
2022-10-05T02:02:04.989Z,101808.66
2022-10-05T02:05:01.044Z,101821.31
2022-10-05T02:07:40.918Z,101815.84
2022-10-05T02:10:23.265Z,101821.31
2022-10-05T02:12:54.857Z,101829.34
2022-10-05T02:15:27.955Z,101822.19
2022-10-05T02:18:07.608Z,101817.69
2022-10-05T02:20:36.970Z,101810.59
2022-10-05T02:23:23.978Z,101816.84
2022-10-05T02:25:53.725Z,101811.47
2022-10-05T02:28:50.135Z,101810.75
2022-10-05T02:31:28.245Z,101807.09
2022-10-05T02:34:29.339Z,101799.91
2022-10-05T02:37:31.282Z,101800.91
2022-10-05T02:40:38.598Z,101791.88
2022-10-05T02:43:30.511Z,101797.22
2022-10-05T02:46:03.116Z,101800.06
2022-10-05T02:48:42.137Z,101793.00
2022-10-05T02:51:14.858Z,101795.66
2022-10-05T02:53:58.029Z,101798.34
2022-10-05T02:56:30.238Z,101794.72
2022-10-05T02:59:08.350Z,101795.66
2022-10-05T03:01:41.765Z,101793.09
2022-10-05T03:04:33.251Z,101786.91
2022-10-05T03:07:23.339Z,101786.91
2022-10-05T03:10:09.787Z,101786.06
2022-10-05T03:12:50.487Z,101787.03
2022-10-05T03:15:27.759Z,101796.78
2022-10-05T03:18:30.775Z,101795.78
2022-10-05T03:21:29.889Z,101795.78
2022-10-05T03:24:01.691Z,101788.75
2022-10-05T03:26:35.013Z,101797.63
2022-10-05T03:29:04.919Z,101794.09
2022-10-05T03:32:06.268Z,101800.41
2022-10-05T03:34:40.272Z,101797.75
2022-10-05T03:37:15.808Z,101794.09
2022-10-05T03:40:00.800Z,101799.56
2022-10-05T03:42:50.830Z,101804.09
2022-10-05T03:45:44.458Z,101809.44
2022-10-05T03:48:26.871Z,101813.06
2022-10-05T03:51:01.080Z,101815.75
2022-10-05T03:53:42.768Z,101814.78
2022-10-05T03:56:25.354Z,101806.03
2022-10-05T03:58:58.816Z,101808.56
2022-10-05T04:01:39.375Z,101810.41
2022-10-05T04:04:10.218Z,101813.91
2022-10-05T04:06:42.757Z,101813.19
2022-10-05T04:09:38.042Z,101807.13
2022-10-05T04:12:23.900Z,101812.47
2022-10-05T04:15:19.235Z,101805.16
2022-10-05T04:17:52.479Z,101813.34
2022-10-05T04:20:43.650Z,101815.88
2022-10-05T04:23:26.456Z,101806.03
2022-10-05T04:25:59.583Z,101809.66
2022-10-05T04:28:32.160Z,101812.34
2022-10-05T04:31:04.323Z,101815.03
2022-10-05T04:33:33.849Z,101812.34
2022-10-05T04:36:31.000Z,101817.69
2022-10-05T04:39:06.317Z,101807.84
2022-10-05T04:42:09.353Z,101815.03
2022-10-05T04:45:23.560Z,101815.03
2022-10-05T04:48:18.849Z,101808.00
2022-10-05T04:51:06.843Z,101813.34
2022-10-05T04:54:00.742Z,101808.94
2022-10-05T04:57:09.319Z,101816.97
2022-10-05T05:00:03.312Z,101813.34
2022-10-05T05:02:36.907Z,101811.63
2022-10-05T05:05:27.579Z,101819.66
2022-10-05T05:08:24.752Z,101822.31
2022-10-05T05:10:59.583Z,101819.66
2022-10-05T05:13:34.573Z,101826.94
2022-10-05T05:16:16.161Z,101822.56
2022-10-05T05:19:23.230Z,101831.56
2022-10-05T05:22:13.758Z,101832.41
2022-10-05T05:25:00.702Z,101833.25
2022-10-05T05:27:34.953Z,101833.25
2022-10-05T05:30:23.577Z,101833.41
2022-10-05T05:33:42.619Z,101838.63
2022-10-05T05:36:26.421Z,101834.97
2022-10-05T05:39:02.001Z,101844.84
2022-10-05T05:41:44.188Z,101849.47
2022-10-05T05:44:21.799Z,101853.09
2022-10-05T05:47:05.310Z,101854.09
2022-10-05T05:50:07.897Z,101856.63
2022-10-05T05:52:51.036Z,101858.34
2022-10-05T05:55:29.769Z,101858.34
2022-10-05T05:58:30.030Z,101865.63
2022-10-05T06:01:25.107Z,101855.88
2022-10-05T06:04:20.810Z,101865.50
2022-10-05T06:06:54.359Z,101864.78
2022-10-05T06:09:31.312Z,101859.28
2022-10-05T06:12:34.518Z,101860.28
2022-10-05T06:15:25.947Z,101868.53
2022-10-05T06:17:58.953Z,101876.56
2022-10-05T06:20:57.728Z,101882.78
2022-10-05T06:23:30.909Z,101884.47
2022-10-05T06:26:11.689Z,101885.31
2022-10-05T06:28:43.085Z,101890.56
2022-10-05T06:31:25.178Z,101885.31
2022-10-05T06:34:04.378Z,101895.19
2022-10-05T06:36:47.542Z,101890.66
2022-10-05T06:40:03.234Z,101889.72
2022-10-05T06:43:07.167Z,101893.09
2022-10-05T06:46:01.198Z,101902.81
2022-10-05T06:49:02.093Z,101896.88
2022-10-05T06:52:20.221Z,101903.19
2022-10-05T06:54:56.000Z,101898.56
2022-10-05T06:57:47.029Z,101901.88
2022-10-05T07:00:16.220Z,101901.88
2022-10-05T07:02:58.824Z,101908.16
2022-10-05T07:05:34.999Z,101907.31
2022-10-05T07:08:41.133Z,101909.88
2022-10-05T07:11:19.749Z,101915.25
2022-10-05T07:14:07.670Z,101920.59
2022-10-05T07:16:58.704Z,101915.13
2022-10-05T07:19:33.852Z,101912.44
2022-10-05T07:22:20.940Z,101917.91
2022-10-05T07:25:16.340Z,101917.78
2022-10-05T07:27:56.692Z,101910.63
2022-10-05T07:30:26.048Z,101910.50
2022-10-05T07:33:02.010Z,101912.78
2022-10-05T07:36:05.919Z,101927.16
2022-10-05T07:39:13.830Z,101922.53
2022-10-05T07:41:46.281Z,101921.94
2022-10-05T07:44:23.038Z,101926.66
2022-10-05T07:47:01.126Z,101930.44
2022-10-05T07:49:43.428Z,101930.19
2022-10-05T07:52:20.170Z,101924.84
2022-10-05T07:55:18.128Z,101926.44
2022-10-05T07:58:01.329Z,101923.38
2022-10-05T08:00:56.170Z,101928.84
2022-10-05T08:03:47.599Z,101927.28
2022-10-05T08:06:28.691Z,101928.13
2022-10-05T08:09:00.367Z,101928.84
2022-10-05T08:11:34.318Z,101922.53
2022-10-05T08:14:17.854Z,101931.28
2022-10-05T08:16:48.319Z,101921.44
2022-10-05T08:19:40.208Z,101927.50
2022-10-05T08:22:14.732Z,101925.69
2022-10-05T08:24:59.752Z,101925.69
2022-10-05T08:27:42.835Z,101924.72
2022-10-05T08:30:13.477Z,101922.78
2022-10-05T08:32:55.613Z,101930.78
2022-10-05T08:35:44.324Z,101935.16
2022-10-05T08:38:39.622Z,101935.88
2022-10-05T08:41:11.450Z,101933.97
2022-10-05T08:44:02.060Z,101934.53
2022-10-05T08:46:30.861Z,101946.13
2022-10-05T08:49:17.983Z,101935.16
2022-10-05T08:52:12.879Z,101945.97
2022-10-05T08:54:53.890Z,101944.78
2022-10-05T08:57:54.759Z,101953.16
2022-10-05T09:00:24.203Z,101957.69
2022-10-05T09:03:13.130Z,101954.38
2022-10-05T09:06:00.451Z,101961.69
2022-10-05T09:08:56.970Z,101960.72
2022-10-05T09:11:35.549Z,101966.53
2022-10-05T09:14:29.449Z,101969.00
2022-10-05T09:17:10.610Z,101966.44
2022-10-05T09:20:33.513Z,101968.88
2022-10-05T09:23:40.363Z,101969.34
2022-10-05T09:26:23.489Z,101969.09
2022-10-05T09:28:52.351Z,101968.00
2022-10-05T09:31:49.137Z,101965.09
2022-10-05T09:34:36.221Z,101967.75
2022-10-05T09:37:23.489Z,101965.09
2022-10-05T09:40:13.978Z,101967.50
2022-10-05T09:42:45.983Z,101967.66
2022-10-05T09:45:27.004Z,101971.91
2022-10-05T09:48:14.056Z,101971.91
2022-10-05T09:51:02.055Z,101967.38
2022-10-05T09:53:35.656Z,101968.50
2022-10-05T09:56:40.684Z,101968.50
2022-10-05T09:59:30.145Z,101967.28
2022-10-05T10:02:14.338Z,101963.97
2022-10-05T10:05:11.632Z,101961.19
2022-10-05T10:08:22.643Z,101962.66
2022-10-05T10:11:02.088Z,101963.00
2022-10-05T10:14:16.234Z,101955.59
2022-10-05T10:17:07.254Z,101961.31
2022-10-05T10:20:04.097Z,101958.75
2022-10-05T10:23:05.033Z,101962.16
2022-10-05T10:25:51.174Z,101964.72
2022-10-05T10:28:34.889Z,101958.00
2022-10-05T10:31:34.014Z,101963.38
2022-10-05T10:34:27.934Z,101965.31
2022-10-05T10:37:17.345Z,101971.03
2022-10-05T10:40:26.374Z,101973.19
2022-10-05T10:43:24.704Z,101977.09
2022-10-05T10:46:41.074Z,101966.03
2022-10-05T10:49:37.247Z,101972.34
2022-10-05T10:52:32.173Z,101971.63
2022-10-05T10:55:32.393Z,101966.75
2022-10-05T10:58:10.214Z,101964.31
2022-10-05T11:01:07.453Z,101963.09
2022-10-05T11:03:56.406Z,101964.94
2022-10-05T11:07:07.209Z,101965.03
2022-10-05T11:10:11.506Z,101958.84
2022-10-05T11:12:53.023Z,101948.84
2022-10-05T11:15:49.001Z,101957.13
2022-10-05T11:18:53.547Z,101952.88
2022-10-05T11:21:37.064Z,101953.88
2022-10-05T11:24:11.826Z,101954.13
2022-10-05T11:27:10.617Z,101945.25
2022-10-05T11:29:45.714Z,101954.00
2022-10-05T11:32:36.654Z,101950.94
2022-10-05T11:35:24.993Z,101946.56
2022-10-05T11:38:18.611Z,101955.44
2022-10-05T11:41:19.695Z,101946.41
2022-10-05T11:44:17.302Z,101942.06
2022-10-05T11:47:05.051Z,101939.38
2022-10-05T11:49:41.800Z,101937.66
2022-10-05T11:52:27.319Z,101936.81
2022-10-05T11:55:23.921Z,101931.47
2022-10-05T11:57:56.847Z,101931.69
2022-10-05T12:00:47.080Z,101930.03
2022-10-05T12:03:45.394Z,101932.09
2022-10-05T12:06:34.437Z,101921.66
2022-10-05T12:09:28.170Z,101923.44
2022-10-05T12:12:04.061Z,101919.22
2022-10-05T12:14:49.371Z,101918.38
2022-10-05T12:17:25.411Z,101918.38
2022-10-05T12:20:02.747Z,101912.13
2022-10-05T12:22:41.341Z,101920.06
2022-10-05T12:25:48.561Z,101917.50
2022-10-05T12:28:21.671Z,101915.69
2022-10-05T12:31:20.607Z,101904.00
2022-10-05T12:34:17.690Z,101906.66
2022-10-05T12:37:05.373Z,101903.88
2022-10-05T12:39:47.635Z,101905.69
2022-10-05T12:42:46.260Z,101903.03
2022-10-05T12:45:39.983Z,101902.91
2022-10-05T12:48:22.484Z,101903.63
2022-10-05T12:50:55.751Z,101893.88
2022-10-05T12:53:40.562Z,101900.06
2022-10-05T12:56:35.995Z,101896.44
2022-10-05T12:59:20.871Z,101897.28
2022-10-05T13:02:39.596Z,101894.47
2022-10-05T13:05:11.711Z,101893.38
2022-10-05T13:07:43.452Z,101897.50
2022-10-05T13:10:35.841Z,101898.22
2022-10-05T13:13:20.844Z,101895.69
2022-10-05T13:16:17.261Z,101902.25
2022-10-05T13:19:19.588Z,101897.75
2022-10-05T13:22:05.742Z,101891.53
2022-10-05T13:24:55.420Z,101893.13
2022-10-05T13:27:29.360Z,101893.13
2022-10-05T13:30:00.099Z,101891.41
2022-10-05T13:32:37.282Z,101896.78
2022-10-05T13:35:30.311Z,101897.63
2022-10-05T13:38:17.342Z,101894.22
2022-10-05T13:41:04.401Z,101892.28
2022-10-05T13:43:40.333Z,101893.38
2022-10-05T13:46:30.439Z,101891.28
2022-10-05T13:49:35.166Z,101893.97
2022-10-05T13:52:18.912Z,101887.06
2022-10-05T13:54:59.341Z,101886.19
2022-10-05T13:57:45.842Z,101887.78
2022-10-05T14:00:24.156Z,101882.66
2022-10-05T14:02:59.339Z,101891.41
2022-10-05T14:05:29.982Z,101890.31
2022-10-05T14:08:05.161Z,101888.63
2022-10-05T14:10:36.795Z,101888.38
2022-10-05T14:13:23.921Z,101886.41
2022-10-05T14:16:18.679Z,101887.38
2022-10-05T14:19:05.967Z,101895.78
2022-10-05T14:22:03.100Z,101891.25
2022-10-05T14:24:50.219Z,101889.31
2022-10-05T14:27:21.451Z,101890.25
2022-10-05T14:30:02.490Z,101887.59
2022-10-05T14:32:59.582Z,101881.50
2022-10-05T14:35:51.046Z,101877.16
2022-10-05T14:38:32.316Z,101875.19
2022-10-05T14:41:06.175Z,101874.19
2022-10-05T14:43:35.726Z,101871.25
2022-10-05T14:46:25.346Z,101870.28
2022-10-05T14:49:26.087Z,101865.91
2022-10-05T14:51:55.733Z,101866.50
2022-10-05T14:54:35.746Z,101859.56
2022-10-05T14:57:23.536Z,101860.44
2022-10-05T14:59:55.776Z,101852.28
2022-10-05T15:02:40.478Z,101854.56
2022-10-05T15:05:21.190Z,101858.66
2022-10-05T15:07:52.052Z,101854.75
2022-10-05T15:10:39.445Z,101853.19
2022-10-05T15:13:19.935Z,101857.53
2022-10-05T15:15:54.185Z,101853.06
2022-10-05T15:18:54.076Z,101849.66
2022-10-05T15:21:54.741Z,101854.16
2022-10-05T15:24:26.948Z,101844.88
2022-10-05T15:26:57.566Z,101846.38
2022-10-05T15:29:38.426Z,101842.41
2022-10-05T15:32:15.065Z,101842.41
2022-10-05T15:35:00.264Z,101839.97
2022-10-05T15:37:35.941Z,101847.03
2022-10-05T15:40:27.255Z,101847.63
2022-10-05T15:42:58.735Z,101840.63
2022-10-05T15:45:38.050Z,101842.34
2022-10-05T15:48:20.522Z,101847.94
2022-10-05T15:51:07.561Z,101843.72
2022-10-05T15:54:15.300Z,101847.34
2022-10-05T15:56:48.340Z,101850.31
2022-10-05T15:59:21.555Z,101852.28
2022-10-05T16:01:53.340Z,101855.66
2022-10-05T16:04:55.021Z,101859.72
2022-10-05T16:07:45.584Z,101859.94
2022-10-05T16:10:24.434Z,101858.13
2022-10-05T16:12:59.169Z,101864.47
2022-10-05T16:15:53.544Z,101862.03
2022-10-05T16:18:47.578Z,101869.34
2022-10-05T16:21:53.285Z,101868.63
2022-10-05T16:24:50.060Z,101867.19
2022-10-05T16:27:40.724Z,101876.22
2022-10-05T16:30:14.161Z,101870.09
2022-10-05T16:33:11.126Z,101871.94
2022-10-05T16:36:05.055Z,101873.78
2022-10-05T16:38:52.245Z,101876.47
2022-10-05T16:41:29.208Z,101881.81
2022-10-05T16:44:27.947Z,101877.31
2022-10-05T16:47:00.223Z,101878.28
2022-10-05T16:49:57.705Z,101880.81
2022-10-05T16:52:26.876Z,101879.97
2022-10-05T16:55:03.445Z,101881.09
2022-10-05T16:57:48.860Z,101887.28
2022-10-05T17:00:24.365Z,101890.09
2022-10-05T17:03:05.140Z,101901.78
2022-10-05T17:06:02.527Z,101893.88
2022-10-05T17:08:49.713Z,101895.72
2022-10-05T17:11:33.795Z,101893.03
2022-10-05T17:14:27.367Z,101904.06
2022-10-05T17:17:09.205Z,101903.00
2022-10-05T17:20:12.332Z,101906.41
2022-10-05T17:22:51.370Z,101908.09
2022-10-05T17:25:34.487Z,101909.81
2022-10-05T17:28:23.892Z,101905.41
2022-10-05T17:30:59.030Z,101910.63
2022-10-05T17:33:32.087Z,101918.78
2022-10-05T17:36:05.179Z,101916.84
2022-10-05T17:38:34.424Z,101911.47
2022-10-05T17:41:23.185Z,101911.59
2022-10-05T17:44:16.477Z,101902.72
2022-10-05T17:47:01.820Z,101914.03
2022-10-05T17:50:16.267Z,101910.13
2022-10-05T17:53:04.005Z,101914.53
2022-10-05T17:55:33.031Z,101915.59
2022-10-05T17:58:22.946Z,101914.75
2022-10-05T18:00:56.855Z,101912.19
2022-10-05T18:03:45.395Z,101909.53
2022-10-05T18:06:26.599Z,101912.19
2022-10-05T18:09:23.215Z,101921.34
2022-10-05T18:12:16.825Z,101909.81
2022-10-05T18:15:01.397Z,101913.44
2022-10-05T18:17:36.617Z,101918.78
2022-10-05T18:20:15.025Z,101915.28
2022-10-05T18:22:46.778Z,101915.28
2022-10-05T18:25:30.485Z,101915.41
2022-10-05T18:28:18.081Z,101914.44
2022-10-05T18:30:59.590Z,101920.75
2022-10-05T18:34:02.776Z,101919.91
2022-10-05T18:36:39.407Z,101922.72
2022-10-05T18:40:06.021Z,101922.72
2022-10-05T18:42:42.851Z,101926.50
2022-10-05T18:45:25.110Z,101931.97
2022-10-05T18:48:12.287Z,101926.00
2022-10-05T18:50:53.070Z,101923.44
2022-10-05T18:53:33.386Z,101926.13
2022-10-05T18:56:13.125Z,101920.94
2022-10-05T18:58:54.515Z,101918.38
2022-10-05T19:01:42.580Z,101923.59
2022-10-05T19:04:30.122Z,101923.72
2022-10-05T19:07:18.081Z,101923.72
2022-10-05T19:10:09.835Z,101918.38
2022-10-05T19:12:41.896Z,101919.09
2022-10-05T19:15:19.688Z,101920.06
2022-10-05T19:18:18.978Z,101919.09
2022-10-05T19:20:55.264Z,101922.25
2022-10-05T19:23:45.445Z,101924.00
2022-10-05T19:26:25.496Z,101924.94
2022-10-05T19:29:18.421Z,101927.63
2022-10-05T19:32:19.144Z,101925.44
2022-10-05T19:35:03.255Z,101928.13
2022-10-05T19:37:38.207Z,101924.00
2022-10-05T19:40:24.541Z,101922.41
2022-10-05T19:43:31.057Z,101917.91
2022-10-05T19:46:00.432Z,101921.56
2022-10-05T19:48:52.162Z,101937.13
2022-10-05T19:51:32.126Z,101937.00
2022-10-05T19:54:14.481Z,101938.09
2022-10-05T19:56:51.534Z,101935.88
2022-10-05T19:59:24.944Z,101933.09
2022-10-05T20:01:56.000Z,101933.94
2022-10-05T20:04:41.836Z,101940.00
2022-10-05T20:07:22.439Z,101939.03
2022-10-05T20:10:36.670Z,101940.00
2022-10-05T20:13:08.915Z,101948.91
2022-10-05T20:15:56.253Z,101956.78
2022-10-05T20:19:02.286Z,101955.94
2022-10-05T20:21:39.898Z,101948.03
2022-10-05T20:24:19.945Z,101943.56
2022-10-05T20:27:02.907Z,101949.75
2022-10-05T20:29:37.092Z,101953.38
2022-10-05T20:32:26.428Z,101953.38
2022-10-05T20:34:59.065Z,101947.19
2022-10-05T20:37:28.379Z,101954.38
2022-10-05T20:39:57.506Z,101954.25
2022-10-05T20:42:26.939Z,101951.69
2022-10-05T20:44:57.515Z,101956.22
2022-10-05T20:47:26.678Z,101961.56
2022-10-05T20:49:55.895Z,101966.91
2022-10-05T20:52:24.766Z,101966.03
2022-10-05T20:54:57.011Z,101966.91
2022-10-05T20:57:27.180Z,101971.41
2022-10-05T20:59:55.945Z,101965.22
2022-10-05T21:02:24.866Z,101974.06
2022-10-05T21:04:53.971Z,101970.56
2022-10-05T21:07:23.879Z,101969.84
2022-10-05T21:09:52.720Z,101971.66
2022-10-05T21:12:21.795Z,101964.59
2022-10-05T21:14:52.861Z,101965.44
2022-10-05T21:17:22.045Z,101965.44
2022-10-05T21:19:51.057Z,101960.22
2022-10-05T21:22:19.800Z,101960.09
2022-10-05T21:24:48.735Z,101954.88
2022-10-05T21:27:17.925Z,101957.56
2022-10-05T21:29:46.716Z,101954.88
2022-10-05T21:32:15.575Z,101956.56
2022-10-05T21:34:44.747Z,101967.28
2022-10-05T21:37:15.895Z,101957.56
2022-10-05T21:39:46.291Z,101961.06
2022-10-05T21:42:15.165Z,101961.19
2022-10-05T21:44:44.000Z,101954.16
2022-10-05T21:47:13.083Z,101952.31
2022-10-05T21:49:42.096Z,101957.78
2022-10-05T21:52:11.135Z,101958.63
2022-10-05T21:54:40.745Z,101952.56
2022-10-05T21:57:11.710Z,101954.38
2022-10-05T21:59:41.115Z,101949.03
2022-10-05T22:02:09.798Z,101949.88
2022-10-05T22:04:38.377Z,101944.53
2022-10-05T22:07:20.457Z,101950.75
2022-10-05T22:09:52.287Z,101946.34
2022-10-05T22:12:21.277Z,101946.47
2022-10-05T22:14:49.827Z,101934.94
2022-10-05T22:17:25.354Z,101933.22
2022-10-05T22:19:55.497Z,101940.41
2022-10-05T22:22:24.127Z,101936.88
2022-10-05T22:24:53.590Z,101939.56
2022-10-05T22:27:23.486Z,101942.22
2022-10-05T22:29:52.276Z,101940.50
2022-10-05T22:32:21.187Z,101940.50
2022-10-05T22:34:50.087Z,101935.16
2022-10-05T22:37:18.717Z,101940.50
2022-10-05T22:39:48.419Z,101925.56
2022-10-05T22:42:17.137Z,101931.75
2022-10-05T22:44:45.859Z,101923.72
2022-10-05T22:47:14.492Z,101919.25
2022-10-05T22:49:43.247Z,101922.78
2022-10-05T22:52:11.857Z,101915.69
2022-10-05T22:54:40.429Z,101918.53
2022-10-05T22:57:09.297Z,101918.53
2022-10-05T22:59:37.953Z,101918.53
2022-10-05T23:02:06.586Z,101911.34
2022-10-05T23:04:35.905Z,101914.00
2022-10-05T23:07:04.646Z,101915.69
2022-10-05T23:09:33.346Z,101915.97
2022-10-05T23:12:02.198Z,101915.13
2022-10-05T23:14:31.225Z,101908.91
2022-10-05T23:16:59.991Z,101908.06
2022-10-05T23:19:28.969Z,101908.16
2022-10-05T23:21:57.672Z,101914.25
2022-10-05T23:24:26.321Z,101908.06
2022-10-05T23:26:55.282Z,101908.16
2022-10-05T23:29:24.135Z,101908.06
2022-10-05T23:31:53.174Z,101907.22
2022-10-05T23:34:22.081Z,101907.22
2022-10-05T23:36:50.793Z,101909.16
2022-10-05T23:39:19.381Z,101911.84
2022-10-05T23:41:48.376Z,101904.66
2022-10-05T23:44:16.885Z,101909.16
2022-10-05T23:46:45.786Z,101898.47
2022-10-05T23:49:15.153Z,101908.28
2022-10-05T23:51:45.078Z,101911.09
2022-10-05T23:54:13.825Z,101906.72
2022-10-05T23:56:43.366Z,101903.09
2022-10-05T23:59:11.977Z,101895.06
